createdAt,value
2022-07-30T00:04:20.806Z,1013.44
2022-07-30T00:19:20.867Z,1013.39
2022-07-30T00:34:20.748Z,1013.32
2022-07-30T00:49:20.696Z,1013.43
2022-07-30T01:04:20.681Z,1013.40
2022-07-30T01:19:20.759Z,1013.37
2022-07-30T01:34:20.654Z,1013.42
2022-07-30T01:49:20.801Z,1013.54
2022-07-30T02:04:20.971Z,1013.58
2022-07-30T02:19:20.755Z,1013.66
2022-07-30T02:34:20.920Z,1013.69
2022-07-30T02:49:21.186Z,1013.79
2022-07-30T03:04:20.916Z,1013.75
2022-07-30T03:19:21.106Z,1013.67
2022-07-30T03:34:20.898Z,1013.83
2022-07-30T03:49:21.363Z,1013.97
2022-07-30T04:04:21.209Z,1014.00
2022-07-30T04:19:21.033Z,1014.16
2022-07-30T04:34:21.147Z,1014.21
2022-07-30T04:49:21.493Z,1014.35
2022-07-30T05:04:21.276Z,1014.56
2022-07-30T05:19:21.360Z,1014.68
2022-07-30T05:34:21.345Z,1014.70
2022-07-30T05:49:21.317Z,1014.83
2022-07-30T06:04:21.393Z,1014.92
2022-07-30T06:19:21.334Z,1014.89
2022-07-30T06:34:21.374Z,1014.95
2022-07-30T06:49:21.456Z,1015.01
2022-07-30T07:04:21.729Z,1015.12
2022-07-30T07:19:59.386Z,1015.39
2022-07-30T07:34:21.588Z,1015.43
2022-07-30T07:49:22.018Z,1015.49
2022-07-30T08:04:21.514Z,1015.41
2022-07-30T08:19:21.715Z,1015.34
2022-07-30T08:34:25.610Z,1015.34
2022-07-30T08:49:21.833Z,1015.42
2022-07-30T09:04:21.737Z,1015.37
2022-07-30T09:19:21.767Z,1015.46
2022-07-30T09:34:22.130Z,1015.31
2022-07-30T09:49:22.522Z,1015.26
2022-07-30T10:04:23.032Z,1015.39
2022-07-30T10:19:40.402Z,1015.32
2022-07-30T10:34:23.641Z,1015.25
2022-07-30T10:49:22.072Z,1015.38
2022-07-30T11:04:22.047Z,1015.25
2022-07-30T11:19:56.204Z,1015.21
2022-07-30T11:34:25.756Z,1015.15
2022-07-30T11:49:22.223Z,1015.01
2022-07-30T12:04:22.230Z,1015.12
2022-07-30T12:19:22.575Z,1015.10
2022-07-30T12:34:22.845Z,1014.89
2022-07-30T12:49:23.089Z,1014.98
2022-07-30T13:04:22.733Z,1014.91
2022-07-30T13:19:22.558Z,1014.89
2022-07-30T13:34:22.826Z,1014.93
2022-07-30T13:49:22.587Z,1014.96
2022-07-30T14:04:22.565Z,1014.84
2022-07-30T14:19:22.969Z,1014.64
2022-07-30T14:34:22.889Z,1014.56
2022-07-30T14:49:23.973Z,1014.58
2022-07-30T15:04:22.751Z,1014.49
2022-07-30T15:19:22.854Z,1014.51
2022-07-30T15:34:22.849Z,1014.46
2022-07-30T15:49:22.837Z,1014.34
2022-07-30T16:04:31.555Z,1014.44
2022-07-30T16:19:22.804Z,1014.46
2022-07-30T16:34:26.345Z,1014.51
2022-07-30T16:49:22.970Z,1014.41
2022-07-30T17:04:22.954Z,1014.40
2022-07-30T17:19:23.132Z,1014.39
2022-07-30T17:34:23.274Z,1014.40
2022-07-30T17:49:23.100Z,1014.59
2022-07-30T18:04:23.191Z,1014.63
2022-07-30T18:19:27.086Z,1014.58
2022-07-30T18:34:23.241Z,1014.65
2022-07-30T18:49:36.171Z,1014.75
2022-07-30T19:04:23.349Z,1014.75
2022-07-30T19:19:23.621Z,1014.78
2022-07-30T19:34:23.386Z,1014.91
2022-07-30T19:49:23.480Z,1014.91
2022-07-30T20:04:23.616Z,1014.87
2022-07-30T20:19:23.561Z,1014.99
2022-07-30T20:34:26.038Z,1015.13
2022-07-30T20:49:28.961Z,1015.08
2022-07-30T21:04:25.717Z,1015.01
2022-07-30T21:19:23.711Z,1014.99
2022-07-30T21:34:26.131Z,1014.93
2022-07-30T21:49:23.797Z,1014.85
2022-07-30T22:04:23.847Z,1014.73
2022-07-30T22:19:23.928Z,1014.77
2022-07-30T22:34:24.235Z,1014.67
2022-07-30T22:49:36.451Z,1014.72
2022-07-30T23:04:24.562Z,1014.64
2022-07-30T23:19:24.215Z,1014.61
2022-07-30T23:34:24.258Z,1014.46
2022-07-30T23:49:24.113Z,1014.28
